createdAt,value
2019-05-05T00:01:59.719Z,8.33
2019-05-05T00:04:54.654Z,7.80
2019-05-05T00:07:30.633Z,7.80
2019-05-05T00:10:04.574Z,7.90
2019-05-05T00:13:08.290Z,7.80
2019-05-05T00:16:05.046Z,8.43
2019-05-05T00:18:37.926Z,7.62
2019-05-05T00:21:10.717Z,8.73
2019-05-05T00:23:45.131Z,9.30
2019-05-05T00:26:18.255Z,8.67
2019-05-05T00:28:51.104Z,9.60
2019-05-05T00:31:24.353Z,9.10
2019-05-05T00:33:57.191Z,9.13
2019-05-05T00:36:30.179Z,9.53
2019-05-05T00:39:04.326Z,9.63
2019-05-05T00:41:37.531Z,9.23
2019-05-05T00:44:10.415Z,9.47
2019-05-05T00:47:08.051Z,9.80
2019-05-05T00:49:46.312Z,9.80
2019-05-05T00:52:17.828Z,10.23
2019-05-05T00:54:50.611Z,9.13
2019-05-05T00:57:24.315Z,9.70
2019-05-05T00:59:57.156Z,10.03
2019-05-05T01:02:36.692Z,9.63
2019-05-05T01:05:26.098Z,10.57
2019-05-05T01:07:59.018Z,10.53
2019-05-05T01:10:32.785Z,10.17
2019-05-05T01:13:06.990Z,9.97
2019-05-05T01:15:40.166Z,9.83
2019-05-05T01:18:15.103Z,10.77
2019-05-05T01:20:49.079Z,10.23
2019-05-05T01:23:24.288Z,10.50
2019-05-05T01:25:56.868Z,9.57
2019-05-05T01:28:31.109Z,9.53
2019-05-05T01:31:07.244Z,10.40
2019-05-05T01:33:47.025Z,10.20
2019-05-05T01:36:19.801Z,11.03
2019-05-05T01:38:58.834Z,10.63
2019-05-05T01:41:38.395Z,11.57
2019-05-05T01:44:11.240Z,10.65
2019-05-05T01:46:44.553Z,10.13
2019-05-05T01:49:17.422Z,10.17
2019-05-05T01:51:50.216Z,10.80
2019-05-05T01:54:25.018Z,11.33
2019-05-05T01:56:58.410Z,10.37
2019-05-05T01:59:31.246Z,11.03
2019-05-05T02:02:04.404Z,11.17
2019-05-05T02:04:37.576Z,10.97
2019-05-05T02:07:10.463Z,10.07
2019-05-05T02:09:44.834Z,10.80
2019-05-05T02:12:17.839Z,10.60
2019-05-05T02:14:50.616Z,9.80
2019-05-05T02:17:24.694Z,9.87
2019-05-05T02:19:57.668Z,10.23
2019-05-05T02:22:30.470Z,10.17
2019-05-05T02:25:04.229Z,10.23
2019-05-05T02:27:37.306Z,9.53
2019-05-05T02:30:22.270Z,9.67
2019-05-05T02:33:02.110Z,10.50
2019-05-05T02:35:35.384Z,9.83
2019-05-05T02:38:08.285Z,9.33
2019-05-05T02:40:41.405Z,10.20
2019-05-05T02:43:15.261Z,9.65
2019-05-05T02:46:19.390Z,9.63
2019-05-05T02:48:55.321Z,8.93
2019-05-05T02:51:30.841Z,10.07
2019-05-05T02:54:05.153Z,10.63
2019-05-05T02:56:45.661Z,9.33
2019-05-05T02:59:30.632Z,9.73
2019-05-05T03:02:16.763Z,9.83
2019-05-05T03:04:49.620Z,9.30
2019-05-05T03:07:26.371Z,10.33
2019-05-05T03:10:03.590Z,9.43
2019-05-05T03:12:39.466Z,9.97
2019-05-05T03:15:22.136Z,8.90
2019-05-05T03:17:55.024Z,8.45
2019-05-05T03:20:27.892Z,8.30
2019-05-05T03:23:00.704Z,9.30
2019-05-05T03:25:33.795Z,9.47
2019-05-05T03:28:06.686Z,9.23
2019-05-05T03:30:39.566Z,8.63
2019-05-05T03:33:15.683Z,8.23
2019-05-05T03:35:47.745Z,8.93
2019-05-05T03:38:20.753Z,8.23
2019-05-05T03:40:55.483Z,7.63
2019-05-05T03:43:31.718Z,7.37
2019-05-05T03:46:07.071Z,7.07
2019-05-05T03:48:39.964Z,8.07
2019-05-05T03:51:18.775Z,8.03
2019-05-05T03:53:47.865Z,7.83
2019-05-05T03:56:20.757Z,7.73
2019-05-05T03:58:54.221Z,6.63
2019-05-05T04:01:44.011Z,6.93
2019-05-05T04:04:25.120Z,7.37
2019-05-05T04:06:58.134Z,7.27
2019-05-05T04:09:31.005Z,7.90
2019-05-05T04:12:04.453Z,6.83
2019-05-05T04:14:39.345Z,6.60
2019-05-05T04:17:39.356Z,7.23
2019-05-05T04:20:36.696Z,7.00
2019-05-05T04:23:09.430Z,6.33
2019-05-05T04:25:43.895Z,6.70
2019-05-05T04:28:16.868Z,6.93
2019-05-05T04:30:49.632Z,5.83
2019-05-05T04:33:23.642Z,6.07
2019-05-05T04:35:56.615Z,6.13
2019-05-05T04:38:29.471Z,5.70
2019-05-05T04:41:03.497Z,5.07
2019-05-05T04:43:36.543Z,5.63
2019-05-05T04:46:09.426Z,5.17
2019-05-05T04:48:56.893Z,5.07
2019-05-05T04:51:46.640Z,4.60
2019-05-05T04:54:24.601Z,4.57
2019-05-05T04:56:57.389Z,4.77
2019-05-05T04:59:30.235Z,6.20
2019-05-05T05:02:07.726Z,5.70
2019-05-05T05:04:48.800Z,5.50
2019-05-05T05:07:21.735Z,4.70
2019-05-05T05:09:54.556Z,5.03
2019-05-05T05:12:27.433Z,4.70
2019-05-05T05:15:00.192Z,4.80
2019-05-05T05:17:40.970Z,4.77
2019-05-05T05:20:14.414Z,4.20
2019-05-05T05:22:47.212Z,4.13
2019-05-05T05:25:19.978Z,4.30
2019-05-05T05:27:53.640Z,4.20
2019-05-05T05:30:26.521Z,4.67
2019-05-05T05:32:59.295Z,4.67
2019-05-05T05:35:33.582Z,4.80
2019-05-05T05:38:07.689Z,4.42
2019-05-05T05:40:48.921Z,3.77
2019-05-05T05:43:27.934Z,4.53
2019-05-05T05:46:08.052Z,4.77
2019-05-05T05:48:50.604Z,5.10
2019-05-05T05:51:23.889Z,4.40
2019-05-05T05:53:56.747Z,5.47
2019-05-05T05:56:29.538Z,3.42
2019-05-05T05:59:03.665Z,4.20
2019-05-05T06:01:36.664Z,4.12
2019-05-05T06:04:09.497Z,4.12
2019-05-05T06:06:43.884Z,4.30
2019-05-05T06:09:16.806Z,4.08
2019-05-05T06:11:49.587Z,3.95
2019-05-05T06:14:22.357Z,3.67
2019-05-05T06:16:55.128Z,3.72
2019-05-05T06:19:27.886Z,3.87
2019-05-05T06:22:00.654Z,3.55
2019-05-05T06:24:34.624Z,4.12
2019-05-05T06:27:07.817Z,3.45
2019-05-05T06:29:40.545Z,3.62
2019-05-05T06:32:14.654Z,3.92
2019-05-05T06:34:47.667Z,3.50
2019-05-05T06:37:20.461Z,3.92
2019-05-05T06:39:55.494Z,4.20
2019-05-05T06:42:37.718Z,3.05
2019-05-05T06:45:19.513Z,3.10
2019-05-05T06:47:53.750Z,2.83
2019-05-05T06:50:26.639Z,3.25
2019-05-05T06:52:59.398Z,2.20
2019-05-05T06:55:34.056Z,1.62
2019-05-05T06:58:07.319Z,2.87
2019-05-05T07:00:40.147Z,2.75
2019-05-05T07:03:13.942Z,2.52
2019-05-05T07:05:46.887Z,2.50
2019-05-05T07:08:19.729Z,2.40
2019-05-05T07:10:54.888Z,1.80
2019-05-05T07:13:27.754Z,2.10
2019-05-05T07:16:00.617Z,1.80
2019-05-05T07:18:34.239Z,2.40
2019-05-05T07:21:07.248Z,2.08
2019-05-05T07:23:40.162Z,2.15
2019-05-05T07:26:14.402Z,2.40
2019-05-05T07:28:47.535Z,2.10
2019-05-05T07:31:20.512Z,2.30
2019-05-05T07:33:54.417Z,2.20
2019-05-05T07:36:45.809Z,1.80
2019-05-05T07:39:18.724Z,2.12
2019-05-05T07:41:51.598Z,2.00
2019-05-05T07:44:29.431Z,2.08
2019-05-05T07:46:59.175Z,2.52
2019-05-05T07:49:33.612Z,2.52
2019-05-05T07:52:07.398Z,2.85
2019-05-05T07:54:40.543Z,2.00
2019-05-05T07:57:14.624Z,1.77
2019-05-05T07:59:47.616Z,2.12
2019-05-05T08:02:20.593Z,2.17
2019-05-05T08:04:54.602Z,1.80
2019-05-05T08:07:27.643Z,1.70
2019-05-05T08:10:00.500Z,1.62
2019-05-05T08:12:34.155Z,1.90
2019-05-05T08:15:08.718Z,2.10
2019-05-05T08:17:53.954Z,2.12
2019-05-05T08:20:33.914Z,2.62
2019-05-05T08:23:09.731Z,2.35
2019-05-05T08:26:14.522Z,2.15
2019-05-05T08:28:54.633Z,1.65
2019-05-05T08:32:01.578Z,1.60
2019-05-05T08:34:34.443Z,1.60
2019-05-05T08:37:07.324Z,1.98
2019-05-05T08:39:40.374Z,1.75
2019-05-05T08:42:14.479Z,2.00
2019-05-05T08:44:47.508Z,1.80
2019-05-05T08:47:20.313Z,1.65
2019-05-05T08:49:53.743Z,1.80
2019-05-05T08:52:26.807Z,1.55
2019-05-05T08:55:00.801Z,2.35
2019-05-05T08:57:34.147Z,1.32
2019-05-05T09:00:07.567Z,2.20
2019-05-05T09:02:40.494Z,1.62
2019-05-05T09:05:14.429Z,1.65
2019-05-05T09:07:47.581Z,1.30
2019-05-05T09:10:20.622Z,1.50
2019-05-05T09:12:54.659Z,1.30
2019-05-05T09:15:27.573Z,1.72
2019-05-05T09:18:00.461Z,1.55
2019-05-05T09:20:34.755Z,1.55
2019-05-05T09:23:08.295Z,1.37
2019-05-05T09:26:08.198Z,2.67
2019-05-05T09:28:48.698Z,2.30
2019-05-05T09:31:23.864Z,1.87
2019-05-05T09:33:56.098Z,1.42
2019-05-05T09:36:30.589Z,1.12
2019-05-05T09:39:04.392Z,1.10
2019-05-05T09:41:37.720Z,1.47
2019-05-05T09:44:10.888Z,1.55
2019-05-05T09:46:44.633Z,1.62
2019-05-05T09:49:17.641Z,1.47
2019-05-05T09:51:50.566Z,1.60
2019-05-05T09:54:24.265Z,3.52
2019-05-05T09:56:57.437Z,1.50
2019-05-05T09:59:30.471Z,3.55
2019-05-05T10:02:04.450Z,1.40
2019-05-05T10:04:38.625Z,1.32
2019-05-05T10:07:13.659Z,6.95
2019-05-05T10:09:46.408Z,4.40
2019-05-05T10:12:19.347Z,7.25
2019-05-05T10:14:54.201Z,5.92
2019-05-05T10:17:27.268Z,7.42
2019-05-05T10:20:00.153Z,3.92
2019-05-05T10:22:34.314Z,3.42
2019-05-05T10:25:25.479Z,2.42
2019-05-05T10:27:58.603Z,1.12
2019-05-05T10:30:31.566Z,1.20
2019-05-05T10:33:04.449Z,1.00
2019-05-05T10:35:37.404Z,1.50
2019-05-05T10:38:10.478Z,1.40
2019-05-05T10:40:44.692Z,1.50
2019-05-05T10:43:17.863Z,1.05
2019-05-05T10:45:50.855Z,1.50
2019-05-05T10:48:23.780Z,1.30
2019-05-05T10:50:56.713Z,1.27
2019-05-05T10:53:29.747Z,1.40
2019-05-05T10:56:04.407Z,1.57
2019-05-05T10:58:37.561Z,1.10
2019-05-05T11:01:10.579Z,1.40
2019-05-05T11:03:44.689Z,1.20
2019-05-05T11:06:18.087Z,1.17
2019-05-05T11:08:51.237Z,1.40
2019-05-05T11:11:24.032Z,1.10
2019-05-05T11:13:57.389Z,1.45
2019-05-05T11:16:30.264Z,1.70
2019-05-05T11:19:04.310Z,2.12
2019-05-05T11:21:37.512Z,1.15
2019-05-05T11:24:10.684Z,1.10
2019-05-05T11:26:44.596Z,1.00
2019-05-05T11:29:18.116Z,1.30
2019-05-05T11:31:51.044Z,1.02
2019-05-05T11:34:27.384Z,1.00
2019-05-05T11:37:08.703Z,1.70
2019-05-05T11:39:41.599Z,1.30
2019-05-05T11:42:14.733Z,1.00
2019-05-05T11:44:47.690Z,1.00
2019-05-05T11:47:20.573Z,1.02
2019-05-05T11:49:56.229Z,1.12
2019-05-05T11:52:28.102Z,1.22
2019-05-05T11:55:11.253Z,1.10
2019-05-05T11:57:35.535Z,0.90
2019-05-05T12:00:08.904Z,0.98
2019-05-05T12:02:43.854Z,1.25
2019-05-05T12:05:16.673Z,1.25
2019-05-05T12:07:49.557Z,1.00
2019-05-05T12:10:39.847Z,1.00
2019-05-05T12:13:16.085Z,1.20
2019-05-05T12:15:53.812Z,1.00
2019-05-05T12:18:34.253Z,1.07
2019-05-05T12:21:08.140Z,0.90
2019-05-05T12:23:41.181Z,1.20
2019-05-05T12:26:31.728Z,1.07
2019-05-05T12:29:10.341Z,1.00
2019-05-05T12:31:48.326Z,1.00
2019-05-05T12:34:21.230Z,1.00
2019-05-05T12:36:54.221Z,1.05
2019-05-05T12:39:27.227Z,1.02
2019-05-05T12:42:00.517Z,1.10
2019-05-05T12:44:41.698Z,0.88
2019-05-05T12:47:34.123Z,1.10
2019-05-05T12:50:06.865Z,1.10
2019-05-05T12:52:39.709Z,1.00
2019-05-05T12:55:14.295Z,1.10
2019-05-05T12:57:47.321Z,1.07
2019-05-05T13:00:21.706Z,0.90
2019-05-05T13:02:54.613Z,0.90
2019-05-05T13:05:27.612Z,1.00
2019-05-05T13:08:00.535Z,0.80
2019-05-05T13:10:33.741Z,1.70
2019-05-05T13:13:06.759Z,1.70
2019-05-05T13:15:40.077Z,1.35
2019-05-05T13:18:14.012Z,1.42
2019-05-05T13:21:04.253Z,1.70
2019-05-05T13:24:01.808Z,1.30
2019-05-05T13:26:45.309Z,1.30
2019-05-05T13:29:18.206Z,1.10
2019-05-05T13:31:51.207Z,1.60
2019-05-05T13:34:24.464Z,1.75
2019-05-05T13:36:57.794Z,1.30
2019-05-05T13:39:30.742Z,1.20
2019-05-05T13:42:04.543Z,1.10
2019-05-05T13:44:58.362Z,1.30
2019-05-05T13:47:31.369Z,1.15
2019-05-05T13:50:19.519Z,1.35
2019-05-05T13:52:52.773Z,1.20
2019-05-05T13:55:25.735Z,1.52
2019-05-05T13:57:58.748Z,1.82
2019-05-05T14:00:33.703Z,4.05
2019-05-05T14:03:06.681Z,1.90
2019-05-05T14:05:39.570Z,1.77
2019-05-05T14:08:14.742Z,2.00
2019-05-05T14:10:47.784Z,2.55
2019-05-05T14:13:20.641Z,1.10
2019-05-05T14:15:54.473Z,1.15
2019-05-05T14:18:27.463Z,2.00
2019-05-05T14:21:00.412Z,1.27
2019-05-05T14:23:35.599Z,1.90
2019-05-05T14:26:08.494Z,1.62
2019-05-05T14:28:41.482Z,1.25
2019-05-05T14:31:16.406Z,1.60
2019-05-05T14:33:57.365Z,1.10
2019-05-05T14:36:37.430Z,1.35
2019-05-05T14:39:11.977Z,3.77
2019-05-05T14:41:45.146Z,1.40
2019-05-05T14:44:17.985Z,1.30
2019-05-05T14:46:50.843Z,1.60
2019-05-05T14:49:24.619Z,1.37
2019-05-05T14:51:57.605Z,2.30
2019-05-05T14:54:30.521Z,2.35
2019-05-05T14:57:04.539Z,1.77
2019-05-05T14:59:37.498Z,1.72
2019-05-05T15:02:11.580Z,1.40
2019-05-05T15:04:44.615Z,1.95
2019-05-05T15:07:34.498Z,1.25
2019-05-05T15:10:29.448Z,1.30
2019-05-05T15:13:05.764Z,1.62
2019-05-05T15:15:39.867Z,1.70
2019-05-05T15:18:14.598Z,1.22
2019-05-05T15:20:47.643Z,1.85
2019-05-05T15:23:20.523Z,1.90
2019-05-05T15:25:54.015Z,1.42
2019-05-05T15:28:27.129Z,1.70
2019-05-05T15:31:00.046Z,1.37
2019-05-05T15:33:33.690Z,1.40
2019-05-05T15:36:06.530Z,2.40
2019-05-05T15:38:39.572Z,3.22
2019-05-05T15:41:14.380Z,3.20
2019-05-05T15:43:47.195Z,1.77
2019-05-05T15:46:19.995Z,3.00
2019-05-05T15:48:54.566Z,2.20
2019-05-05T15:51:28.435Z,2.15
2019-05-05T15:54:01.236Z,2.20
2019-05-05T15:56:34.255Z,1.30
2019-05-05T15:59:07.329Z,2.37
2019-05-05T16:01:40.574Z,2.33
2019-05-05T16:04:14.116Z,1.57
2019-05-05T16:06:50.513Z,1.17
2019-05-05T16:09:23.388Z,1.30
2019-05-05T16:11:56.206Z,2.05
2019-05-05T16:14:29.288Z,2.20
2019-05-05T16:17:30.039Z,2.25
2019-05-05T16:20:10.026Z,1.60
2019-05-05T16:23:14.355Z,2.20
2019-05-05T16:25:47.337Z,1.67
2019-05-05T16:28:21.223Z,1.35
2019-05-05T16:30:56.120Z,2.10
2019-05-05T16:33:28.715Z,1.72
2019-05-05T16:36:01.556Z,2.75
2019-05-05T16:38:34.512Z,3.92
2019-05-05T16:41:07.490Z,3.33
2019-05-05T16:43:40.345Z,4.87
2019-05-05T16:46:16.992Z,4.05
2019-05-05T16:48:48.993Z,4.40
2019-05-05T16:51:25.802Z,6.20
2019-05-05T16:54:00.452Z,4.70
2019-05-05T16:56:33.640Z,5.20
2019-05-05T16:59:06.572Z,4.20
2019-05-05T17:01:39.555Z,3.00
2019-05-05T17:04:14.293Z,2.40
2019-05-05T17:06:47.166Z,1.70
2019-05-05T17:09:20.034Z,2.00
2019-05-05T17:12:11.151Z,1.87
2019-05-05T17:15:17.855Z,2.02
2019-05-05T17:17:57.068Z,2.00
2019-05-05T17:20:33.755Z,1.90
2019-05-05T17:23:08.858Z,2.02
2019-05-05T17:25:43.814Z,2.10
2019-05-05T17:28:17.131Z,1.92
2019-05-05T17:30:50.011Z,2.02
2019-05-05T17:33:24.168Z,2.08
2019-05-05T17:35:57.158Z,1.98
2019-05-05T17:38:30.119Z,2.20
2019-05-05T17:41:14.192Z,2.00
2019-05-05T17:44:09.418Z,2.12
2019-05-05T17:46:55.944Z,2.10
2019-05-05T17:49:45.774Z,2.08
2019-05-05T17:52:36.182Z,2.40
2019-05-05T17:55:33.860Z,2.65
2019-05-05T17:58:06.957Z,3.08
2019-05-05T18:00:54.351Z,3.30
2019-05-05T18:03:27.534Z,3.50
2019-05-05T18:06:18.254Z,3.12
2019-05-05T18:08:55.735Z,3.45
2019-05-05T18:11:38.244Z,2.52
2019-05-05T18:14:16.504Z,2.20
2019-05-05T18:16:49.383Z,3.40
2019-05-05T18:19:24.777Z,8.33
2019-05-05T18:21:57.784Z,9.00
2019-05-05T18:24:30.762Z,9.78
2019-05-05T18:27:04.572Z,9.10
2019-05-05T18:29:37.682Z,8.45
2019-05-05T18:32:10.560Z,8.15
2019-05-05T18:34:43.409Z,7.80
2019-05-05T18:37:16.282Z,5.62
2019-05-05T18:39:49.343Z,4.65
2019-05-05T18:42:24.674Z,4.70
2019-05-05T18:45:03.592Z,5.50
2019-05-05T18:47:37.516Z,7.22
2019-05-05T18:50:10.841Z,8.38
2019-05-05T18:52:47.054Z,12.53
2019-05-05T18:55:18.759Z,20.92
2019-05-05T18:57:51.850Z,16.37
2019-05-05T19:00:45.192Z,11.33
2019-05-05T19:03:24.524Z,10.08
2019-05-05T19:06:16.628Z,9.68
2019-05-05T19:08:54.409Z,9.03
2019-05-05T19:11:26.339Z,8.78
2019-05-05T19:13:59.668Z,10.08
2019-05-05T19:16:34.561Z,9.95
2019-05-05T19:19:07.495Z,7.62
2019-05-05T19:21:43.827Z,8.08
2019-05-05T19:24:17.069Z,9.00
2019-05-05T19:26:50.360Z,10.50
2019-05-05T19:29:25.335Z,10.20
2019-05-05T19:31:58.688Z,6.70
2019-05-05T19:34:35.119Z,5.62
2019-05-05T19:37:06.881Z,6.35
2019-05-05T19:39:39.950Z,10.45
2019-05-05T19:42:14.416Z,8.68
2019-05-05T19:44:47.714Z,6.55
2019-05-05T19:47:22.078Z,6.67
2019-05-05T19:50:03.590Z,5.40
2019-05-05T19:52:36.983Z,5.05
2019-05-05T19:55:13.720Z,5.05
2019-05-05T19:57:46.515Z,4.22
2019-05-05T20:00:20.246Z,4.08
2019-05-05T20:03:04.238Z,4.17
2019-05-05T20:05:29.222Z,3.90
2019-05-05T20:08:03.930Z,3.92
2019-05-05T20:10:37.189Z,4.15
2019-05-05T20:13:13.824Z,3.92
2019-05-05T20:16:18.092Z,3.62
2019-05-05T20:18:51.297Z,4.30
2019-05-05T20:21:24.367Z,3.92
2019-05-05T20:23:57.397Z,4.60
2019-05-05T20:26:30.646Z,9.73
2019-05-05T20:29:11.545Z,12.23
2019-05-05T20:31:38.502Z,7.47
2019-05-05T20:34:24.428Z,7.00
2019-05-05T20:37:11.031Z,5.55
2019-05-05T20:39:44.258Z,4.60
2019-05-05T20:42:17.140Z,4.17
2019-05-05T20:44:50.192Z,4.10
2019-05-05T20:47:23.726Z,4.50
2019-05-05T20:49:57.034Z,4.58
2019-05-05T20:52:30.173Z,4.22
2019-05-05T20:55:04.780Z,5.15
2019-05-05T20:57:38.145Z,7.42
2019-05-05T21:00:14.544Z,7.10
2019-05-05T21:02:49.046Z,7.05
2019-05-05T21:05:24.021Z,6.30
2019-05-05T21:07:56.613Z,5.15
2019-05-05T21:10:29.483Z,5.58
2019-05-05T21:13:03.727Z,6.03
2019-05-05T21:15:36.911Z,11.38
2019-05-05T21:18:09.797Z,10.13
2019-05-05T21:20:44.036Z,10.93
2019-05-05T21:23:21.403Z,11.38
2019-05-05T21:25:58.116Z,12.97
2019-05-05T21:28:30.975Z,12.68
2019-05-05T21:31:04.824Z,12.90
2019-05-05T21:33:37.870Z,13.30
2019-05-05T21:36:11.155Z,14.65
2019-05-05T21:38:44.102Z,14.10
2019-05-05T21:41:19.279Z,12.68
2019-05-05T21:43:51.549Z,12.63
2019-05-05T21:46:24.545Z,12.73
2019-05-05T21:48:57.460Z,11.73
2019-05-05T21:51:45.979Z,11.53
2019-05-05T21:54:44.046Z,11.27
2019-05-05T21:57:38.552Z,11.75
2019-05-05T22:00:39.559Z,11.83
2019-05-05T22:03:17.195Z,12.80
2019-05-05T22:05:50.167Z,12.80
2019-05-05T22:08:23.940Z,12.23
2019-05-05T22:10:56.966Z,10.20
2019-05-05T22:13:29.790Z,10.68
2019-05-05T22:16:04.088Z,11.70
2019-05-05T22:18:37.045Z,15.97
2019-05-05T22:21:19.146Z,15.20
2019-05-05T22:24:12.852Z,15.32
2019-05-05T22:26:44.760Z,15.97
2019-05-05T22:29:18.059Z,14.63
2019-05-05T22:31:50.932Z,14.13
2019-05-05T22:34:24.173Z,14.30
2019-05-05T22:36:57.225Z,14.60
2019-05-05T22:39:33.662Z,11.97
2019-05-05T22:42:06.104Z,12.47
2019-05-05T22:44:38.999Z,13.45
2019-05-05T22:47:13.889Z,13.03
2019-05-05T22:49:46.877Z,13.47
2019-05-05T22:52:19.668Z,11.10
2019-05-05T22:54:52.527Z,12.47
2019-05-05T22:57:25.532Z,12.83
2019-05-05T22:59:58.295Z,11.40
2019-05-05T23:02:34.175Z,13.47
2019-05-05T23:05:24.429Z,13.53
2019-05-05T23:07:58.395Z,12.68
2019-05-05T23:10:31.451Z,11.57
2019-05-05T23:13:04.430Z,12.40
2019-05-05T23:15:39.384Z,11.47
2019-05-05T23:18:20.712Z,12.53
2019-05-05T23:21:15.563Z,13.60
2019-05-05T23:24:09.468Z,13.37
2019-05-05T23:26:43.834Z,12.90
2019-05-05T23:29:17.763Z,12.30
2019-05-05T23:31:50.643Z,13.30
2019-05-05T23:34:24.282Z,12.43
2019-05-05T23:36:57.325Z,12.33
2019-05-05T23:39:30.172Z,12.23
2019-05-05T23:42:04.072Z,11.68
2019-05-05T23:44:36.928Z,12.27
2019-05-05T23:47:09.731Z,12.10
2019-05-05T23:49:44.024Z,12.47
2019-05-05T23:52:17.020Z,12.73
2019-05-05T23:54:49.908Z,15.43
2019-05-05T23:57:24.553Z,13.43
2019-05-05T23:59:57.182Z,13.53
